Time;durP1;ratioP1;P1;durP2;ratioP2;P2;SDS_P1;SDS_P2;PMS_P1;PMS_P2;Temp;Humidity;BMP_temperature;BMP_pressure;BME280_temperature;BME280_humidity;BME280_pressure;Samples;Min_cycle;Max_cycle;Signal;HPM_P1;HPM_P2
2021/01/03 00:01:06;;;;;;;39.78;25.58;;;;;;;2.34;100.00;100797.91;10258532;29;20404;-75
2021/01/03 00:06:11;;;;;;;46.53;27.08;;;;;;;2.37;100.00;100802.22;10259278;29;20043;-75
2021/01/03 00:11:12;;;;;;;47.92;25.85;;;;;;;2.32;100.00;100786.66;10258218;29;20039;-76
2021/01/03 00:16:13;;;;;;;44.17;26.75;;;;;;;2.30;100.00;100778.00;10257600;29;20047;-75
2021/01/03 00:21:14;;;;;;;48.45;27.92;;;;;;;2.45;100.00;100797.81;10258202;29;20039;-75
2021/01/03 00:26:15;;;;;;;42.58;26.50;;;;;;;2.48;100.00;100797.81;10257941;28;20055;-75
2021/01/03 00:31:16;;;;;;;37.20;24.40;;;;;;;2.40;100.00;100795.25;10291698;28;20046;-75
2021/01/03 00:36:18;;;;;;;39.40;25.05;;;;;;;2.38;100.00;100794.41;10288004;28;20062;-75
2021/01/03 00:41:19;;;;;;;37.95;24.98;;;;;;;2.34;100.00;100786.66;10257067;29;20039;-76
2021/01/03 00:46:20;;;;;;;46.38;27.88;;;;;;;2.51;100.00;100802.97;10240729;29;20044;-76
2021/01/03 00:51:22;;;;;;;42.00;26.15;;;;;;;2.47;100.00;100790.88;10224318;29;20055;-75
2021/01/03 00:56:24;;;;;;;40.75;25.83;;;;;;;2.45;100.00;100785.69;10257191;29;20054;-75
2021/01/03 01:01:25;;;;;;;41.20;26.05;;;;;;;2.54;100.00;100792.53;10255999;29;20054;-76
2021/01/03 01:06:26;;;;;;;44.38;27.35;;;;;;;2.55;100.00;100792.53;10256016;28;20070;-76
2021/01/03 01:11:28;;;;;;;37.05;24.45;;;;;;;2.50;100.00;100788.25;10256722;29;20051;-75
2021/01/03 01:16:29;;;;;;;40.95;27.80;;;;;;;2.57;100.00;100788.19;10251265;29;20440;-75
2021/01/03 01:21:31;;;;;;;38.80;23.92;;;;;;;2.54;100.00;100780.41;10239306;29;20376;-75
2021/01/03 01:26:32;;;;;;;41.88;25.73;;;;;;;2.46;100.00;100777.00;10256249;29;20039;-75
2021/01/03 01:31:33;;;;;;;42.05;26.30;;;;;;;2.53;100.00;100781.28;10274996;28;20400;-75
2021/01/03 01:36:34;;;;;;;44.22;26.63;;;;;;;2.41;100.00;100770.13;10277744;28;20468;-75
2021/01/03 01:41:35;;;;;;;42.50;28.65;;;;;;;2.54;100.00;100784.75;10254895;28;20055;-75
2021/01/03 01:46:48;;;;;;;39.58;26.00;;;;;;;2.49;100.00;100787.38;10254636;29;20043;-75
2021/01/03 01:51:54;;;;;;;45.17;27.00;;;;;;;2.41;100.00;100772.72;10237761;29;20385;-75
2021/01/03 01:57:00;;;;;;;44.55;27.10;;;;;;;2.45;100.00;100787.41;10254789;29;20127;-75
2021/01/03 02:02:05;;;;;;;45.50;29.02;;;;;;;2.45;100.00;100792.63;10238865;29;20058;-75
2021/01/03 02:07:14;;;;;;;51.78;31.83;;;;;;;2.51;100.00;100798.63;10233422;28;20043;-75
2021/01/03 02:12:26;;;;;;;49.05;30.38;;;;;;;2.59;100.00;100790.78;10217847;29;20130;-75
2021/01/03 02:17:27;;;;;;;48.38;31.60;;;;;;;2.53;100.00;100781.28;10254287;28;20043;-75
2021/01/03 02:22:53;;;;;;;53.17;31.05;;;;;;;2.57;100.00;100793.38;10254363;29;20043;-75
2021/01/03 02:28:20;;;;;;;41.33;27.20;;;;;;;2.56;100.00;100786.47;10241802;28;20059;-75
2021/01/03 02:33:46;;;;;;;40.80;26.30;;;;;;;2.64;100.00;100786.38;10265233;28;20055;-76
2021/01/03 02:39:02;;;;;;;;;;;;;;;2.62;100.00;100772.53;10235962;29;20145;-76
2021/01/03 02:44:04;;;;;;;43.53;27.75;;;;;;;2.58;100.00;100763.03;10253091;29;19923;-75
2021/01/03 02:49:06;;;;;;;45.65;28.15;;;;;;;2.59;100.00;100768.25;10238243;28;20475;-75
2021/01/03 02:54:09;;;;;;;48.35;29.75;;;;;;;2.54;100.00;100767.41;10259834;29;20051;-75
2021/01/03 02:59:10;;;;;;;41.30;26.48;;;;;;;2.45;100.00;100757.06;10245691;29;20528;-76
2021/01/03 03:04:11;;;;;;;48.90;29.73;;;;;;;2.46;100.00;100763.13;10256512;29;20184;-75
2021/01/03 03:09:12;;;;;;;50.20;30.45;;;;;;;2.36;100.00;100749.34;10260578;29;20043;-75
2021/01/03 03:14:14;;;;;;;50.78;31.75;;;;;;;2.40;100.00;100763.19;10260968;29;20135;-75
2021/01/03 03:19:16;;;;;;;44.00;28.75;;;;;;;2.40;100.00;100766.66;10260099;29;20082;-75
2021/01/03 03:24:17;;;;;;;45.85;29.27;;;;;;;2.43;100.00;100756.22;10260994;29;20051;-75
2021/01/03 03:29:20;;;;;;;45.78;27.38;;;;;;;2.38;100.00;100752.81;10279230;28;20407;-75
2021/01/03 03:34:22;;;;;;;45.75;28.35;;;;;;;2.41;100.00;100757.13;10295912;28;20054;-75
2021/01/03 03:39:25;;;;;;;41.75;27.45;;;;;;;2.43;100.00;100745.81;10260132;29;20058;-75
2021/01/03 03:44:28;;;;;;;43.72;28.00;;;;;;;2.41;100.00;100747.59;10259494;29;20054;-75
2021/01/03 03:49:31;;;;;;;45.88;28.90;;;;;;;2.35;100.00;100729.44;10259571;28;20054;-75
2021/01/03 03:54:33;;;;;;;44.17;29.00;;;;;;;2.34;100.00;100722.53;10259216;29;20043;-75
2021/01/03 03:59:37;;;;;;;38.15;25.35;;;;;;;2.32;100.00;100726.00;10259426;29;20043;-75
2021/01/03 04:04:39;;;;;;;35.97;23.45;;;;;;;2.35;100.00;100725.97;10257542;28;20067;-75
2021/01/03 04:09:40;;;;;;;36.17;25.35;;;;;;;2.32;100.00;100723.41;10259101;29;20053;-75
2021/01/03 04:14:41;;;;;;;41.97;27.27;;;;;;;2.26;100.00;100724.31;10258417;29;20047;-75
2021/01/03 04:19:42;;;;;;;43.42;28.15;;;;;;;2.27;100.00;100719.09;10258336;29;20079;-75
2021/01/03 04:24:43;;;;;;;41.17;26.27;;;;;;;2.24;100.00;100716.56;10257808;29;20047;-75
2021/01/03 04:29:44;;;;;;;41.60;27.60;;;;;;;2.20;100.00;100714.84;10279668;28;20420;-75
2021/01/03 04:34:46;;;;;;;45.83;29.10;;;;;;;2.28;100.00;100726.03;10263623;28;20058;-76
2021/01/03 04:39:48;;;;;;;44.15;28.55;;;;;;;2.26;100.00;100729.50;10239474;28;20054;-75
2021/01/03 04:44:52;;;;;;;44.85;28.33;;;;;;;2.29;100.00;100729.50;10257791;28;20046;-75
2021/01/03 04:50:13;;;;;;;44.25;27.85;;;;;;;2.37;100.00;100738.09;10257781;28;20046;-75
2021/01/03 04:55:19;;;;;;;37.78;25.42;;;;;;;2.37;100.00;100739.81;10257054;29;20051;-75
2021/01/03 05:00:30;;;;;;;39.97;25.35;;;;;;;2.37;100.00;100742.41;10257155;29;20377;-75
2021/01/03 05:05:36;;;;;;;39.65;26.42;;;;;;;2.27;100.00;100726.03;10256160;28;20046;-76
2021/01/03 05:10:37;;;;;;;41.58;26.40;;;;;;;2.22;100.00;100723.50;10256429;29;20050;-75
2021/01/03 05:15:38;;;;;;;40.97;26.60;;;;;;;2.27;100.00;100729.50;10255742;28;20039;-75
2021/01/03 05:20:40;;;;;;;40.25;27.15;;;;;;;2.30;100.00;100728.63;10255443;29;20039;-75
2021/01/03 05:25:43;;;;;;;41.67;27.60;;;;;;;2.30;100.00;100726.03;10255812;29;20035;-75
2021/01/03 05:30:44;;;;;;;40.33;26.55;;;;;;;2.28;100.00;100722.56;10279882;28;20043;-75
2021/01/03 05:35:45;;;;;;;40.65;26.65;;;;;;;2.28;100.00;100732.97;10225672;29;20063;-75
2021/01/03 05:40:46;;;;;;;40.83;26.73;;;;;;;2.30;100.00;100718.22;10237558;29;20051;-75
2021/01/03 05:46:00;;;;;;;36.15;25.73;;;;;;;2.32;100.00;100732.06;10255187;29;20047;-75
2021/01/03 05:51:01;;;;;;;33.05;23.23;;;;;;;2.16;100.00;100717.50;10255563;29;20054;-75
2021/01/03 05:56:13;;;;;;;37.60;25.45;;;;;;;2.21;100.00;100724.38;10255237;29;20047;-75
2021/01/03 06:01:35;;;;;;;37.20;24.00;;;;;;;2.24;100.00;100726.09;10254835;29;20054;-75
2021/01/03 06:07:07;;;;;;;32.95;22.92;;;;;;;2.29;100.00;100748.56;10253483;28;20058;-75
2021/01/03 06:12:23;;;;;;;37.22;23.65;;;;;;;2.36;100.00;100751.94;10231004;29;20484;-75
2021/01/03 06:17:35;;;;;;;34.75;23.10;;;;;;;2.37;100.00;100738.09;10254809;29;20043;-75
2021/01/03 06:22:52;;;;;;;34.90;24.90;;;;;;;2.42;100.00;100748.47;10253791;29;20055;-75
2021/01/03 06:28:02;;;;;;;33.85;22.63;;;;;;;2.37;100.00;100748.47;10253308;28;20047;-75
2021/01/03 06:33:36;;;;;;;32.80;22.52;;;;;;;2.44;100.00;100749.28;10251329;29;20063;-75
2021/01/03 06:39:09;;;;;;;33.85;21.63;;;;;;;2.53;100.00;100741.41;10228015;29;20046;-75
2021/01/03 06:44:38;;;;;;;32.15;21.40;;;;;;;2.48;100.00;100728.47;10241605;28;20043;-75
2021/01/03 06:49:53;;;;;;;30.05;20.30;;;;;;;2.46;100.00;100725.00;10253978;29;20476;-75
2021/01/03 06:55:11;;;;;;;30.25;20.52;;;;;;;2.50;100.00;100720.66;10221772;29;20043;-75
2021/01/03 07:00:23;;;;;;;29.45;20.65;;;;;;;2.49;100.00;100716.31;10213451;29;20123;-75
2021/01/03 07:05:25;;;;;;;32.33;22.08;;;;;;;2.48;100.00;100706.78;10213662;29;20043;-76
2021/01/03 07:10:40;;;;;;;29.33;20.08;;;;;;;2.50;100.00;100711.13;10213300;29;20059;-75
2021/01/03 07:15:41;;;;;;;30.03;19.17;;;;;;;2.58;100.00;100705.84;10243420;29;20043;-75
2021/01/03 07:21:16;;;;;;;29.85;20.83;;;;;;;2.55;100.00;100709.31;10251949;28;20043;-75
2021/01/03 07:26:29;;;;;;;29.25;19.45;;;;;;;2.49;100.00;100687.72;10211236;29;20401;-75
2021/01/03 07:31:52;;;;;;;28.40;20.17;;;;;;;2.56;100.00;100697.19;10250428;28;20448;-75
2021/01/03 07:37:12;;;;;;;27.67;19.52;;;;;;;2.50;100.00;100698.13;10253629;28;20043;-75
2021/01/03 07:42:26;;;;;;;29.10;19.73;;;;;;;2.56;100.00;100698.03;10259390;29;20098;-75
2021/01/03 07:47:54;;;;;;;27.60;19.88;;;;;;;2.57;100.00;100697.16;10259926;29;20047;-75
2021/01/03 07:53:36;;;;;;;27.63;18.23;;;;;;;2.54;100.00;100691.13;10256535;29;20059;-75
2021/01/03 07:58:37;;;;;;;27.38;18.42;;;;;;;2.56;100.00;100689.38;10258880;29;20063;-75
2021/01/03 08:03:40;;;;;;;21.88;16.50;;;;;;;2.50;100.00;100679.91;10259421;29;20391;-75
2021/01/03 08:08:41;;;;;;;23.75;17.83;;;;;;;2.55;100.00;100682.44;10258094;29;20066;-75
2021/01/03 08:13:46;;;;;;;25.25;17.58;;;;;;;2.55;100.00;100679.84;10259085;29;20047;-75
2021/01/03 08:19:21;;;;;;;24.27;17.00;;;;;;;2.64;100.00;100683.22;10258211;29;20054;-75
2021/01/03 08:24:22;;;;;;;22.10;15.55;;;;;;;2.62;100.00;100682.38;10239648;29;20039;-75
2021/01/03 08:30:04;;;;;;;24.27;16.52;;;;;;;2.63;100.00;100678.88;10258542;28;20051;-75
2021/01/03 08:35:12;;;;;;;22.90;15.90;;;;;;;2.64;100.00;100672.81;10250160;28;20055;-76
2021/01/03 08:40:13;;;;;;;25.05;15.60;;;;;;;2.56;100.00;100658.16;10257617;29;20047;-75
2021/01/03 08:45:20;;;;;;;20.30;13.75;;;;;;;2.66;100.00;100670.19;10257379;29;20047;-75
2021/01/03 08:50:25;;;;;;;20.10;13.63;;;;;;;2.67;100.00;100665.00;10240456;29;20058;-75
2021/01/03 08:55:30;;;;;;;21.63;16.27;;;;;;;2.68;100.00;100663.22;10240266;29;20395;-75
2021/01/03 09:00:35;;;;;;;33.17;23.70;;;;;;;2.67;100.00;100656.31;10256706;29;20054;-75
2021/01/03 09:05:37;;;;;;;21.77;16.40;;;;;;;2.78;100.00;100661.38;10255787;28;20050;-75
2021/01/03 09:10:42;;;;;;;26.00;22.55;;;;;;;2.71;100.00;100647.59;10255481;29;20510;-75
2021/01/03 09:15:53;;;;;;;18.13;14.60;;;;;;;2.71;100.00;100651.94;10256528;29;20040;-75
2021/01/03 09:21:02;;;;;;;19.52;14.68;;;;;;;2.65;100.00;100643.34;10227905;29;20043;-75
2021/01/03 09:26:03;;;;;;;25.20;16.40;;;;;;;2.69;100.00;100662.34;10255649;29;20477;-75
2021/01/03 09:31:16;;;;;;;16.63;13.10;;;;;;;2.62;100.00;100651.16;10289097;28;20042;-75
2021/01/03 09:36:29;;;;;;;15.82;12.45;;;;;;;2.71;100.00;100662.34;10256839;28;20055;-75
2021/01/03 09:41:48;;;;;;;15.27;11.40;;;;;;;2.76;100.00;100653.63;10255584;29;20047;-75
2021/01/03 09:47:06;;;;;;;15.80;11.13;;;;;;;2.81;100.00;100661.34;10253074;29;20047;-75
2021/01/03 09:52:07;;;;;;;15.82;12.02;;;;;;;2.83;100.00;100654.41;10255163;29;20488;-75
2021/01/03 09:57:33;;;;;;;16.08;11.93;;;;;;;3.03;100.00;100662.81;10254468;29;20396;-75
2021/01/03 10:02:35;;;;;;;17.38;12.80;;;;;;;2.86;100.00;100646.53;10254147;28;20061;-74
2021/01/03 10:07:36;;;;;;;15.82;11.88;;;;;;;2.88;100.00;100639.59;10234337;29;20050;-74
2021/01/03 10:12:40;;;;;;;14.15;11.07;;;;;;;2.93;100.00;100640.41;10232514;29;20074;-74
2021/01/03 10:17:54;;;;;;;16.08;12.45;;;;;;;2.91;100.00;100636.97;10254892;29;20551;-74
2021/01/03 10:22:55;;;;;;;19.23;13.40;;;;;;;2.94;100.00;100632.56;10251940;29;20059;-74
2021/01/03 10:28:12;;;;;;;15.77;11.60;;;;;;;2.91;100.00;100631.75;10255340;28;20043;-74
2021/01/03 10:33:13;;;;;;;19.77;15.10;;;;;;;2.92;100.00;100618.72;10244409;29;20428;-74
2021/01/03 10:38:14;;;;;;;14.15;11.02;;;;;;;2.90;100.00;100609.22;10236713;28;20384;-74
2021/01/03 10:43:15;;;;;;;12.40;10.00;;;;;;;2.91;100.00;100611.81;10254067;28;20396;-74
2021/01/03 10:48:16;;;;;;;11.88;10.40;;;;;;;2.99;100.00;100612.56;10230985;29;20055;-74
2021/01/03 10:53:18;;;;;;;14.25;9.60;;;;;;;3.12;100.00;100608.03;10251024;29;20052;-74
2021/01/03 10:58:19;;;;;;;11.23;9.32;;;;;;;3.02;100.00;100596.88;10250076;28;20074;-74
2021/01/03 11:03:20;;;;;;;12.45;9.90;;;;;;;2.99;100.00;100583.06;10252233;29;20043;-74
2021/01/03 11:08:21;;;;;;;11.25;8.43;;;;;;;3.08;100.00;100590.75;10252050;29;20055;-74
2021/01/03 11:13:22;;;;;;;14.35;11.27;;;;;;;3.11;100.00;100582.03;10255275;28;20476;-75
2021/01/03 11:18:24;;;;;;;12.60;9.35;;;;;;;3.04;100.00;100568.25;10242888;29;20137;-74
2021/01/03 11:23:25;;;;;;;10.45;7.60;;;;;;;3.15;100.00;100568.97;10226775;29;20051;-75
2021/01/03 11:28:27;;;;;;;9.85;7.68;;;;;;;3.05;100.00;100543.94;10230820;29;20047;-74
2021/01/03 11:33:28;;;;;;;10.85;8.88;;;;;;;3.02;100.00;100546.56;10227645;29;20063;-74
2021/01/03 11:38:29;;;;;;;12.25;8.32;;;;;;;3.09;100.00;100552.56;10250376;28;20039;-76
2021/01/03 11:43:30;;;;;;;12.50;8.63;;;;;;;3.01;100.00;100550.09;10258662;29;20047;-72
2021/01/03 11:48:32;;;;;;;9.75;8.13;;;;;;;3.03;100.00;100559.56;10251006;29;20055;-72
2021/01/03 11:53:33;;;;;;;10.43;7.82;;;;;;;3.03;100.00;100541.34;10253694;29;20050;-72
2021/01/03 11:58:35;;;;;;;12.50;8.48;;;;;;;3.19;100.00;100554.13;10259249;29;20051;-72
2021/01/03 12:03:36;;;;;;;9.60;8.20;;;;;;;3.07;100.00;100531.78;10256567;29;20051;-72
2021/01/03 12:08:37;;;;;;;10.48;8.35;;;;;;;3.09;100.00;100545.63;10256319;29;20055;-72
2021/01/03 12:13:38;;;;;;;11.55;8.82;;;;;;;3.11;100.00;100545.59;10256435;28;20050;-72
2021/01/03 12:18:40;;;;;;;9.90;7.90;;;;;;;3.09;100.00;100536.97;10257359;29;20089;-72
2021/01/03 12:23:41;;;;;;;10.73;8.23;;;;;;;3.05;100.00;100537.00;10258219;28;20047;-72
2021/01/03 12:28:42;;;;;;;9.85;7.40;;;;;;;3.08;100.00;100549.13;10272009;28;20046;-72
2021/01/03 12:33:43;;;;;;;9.90;7.90;;;;;;;3.07;100.00;100544.78;10285866;28;20047;-72
2021/01/03 12:38:45;;;;;;;10.43;7.90;;;;;;;3.03;100.00;100537.88;10257895;29;20053;-72
2021/01/03 12:43:47;;;;;;;9.43;7.95;;;;;;;3.13;100.00;100544.69;10241147;29;20047;-72
2021/01/03 12:48:48;;;;;;;10.30;7.70;;;;;;;3.11;100.00;100548.19;10257088;29;20039;-72
2021/01/03 12:53:50;;;;;;;9.77;8.35;;;;;;;3.07;100.00;100543.94;10256536;29;20055;-72
2021/01/03 12:58:53;;;;;;;8.77;7.32;;;;;;;3.05;100.00;100542.19;10257196;29;20098;-72
2021/01/03 13:03:54;;;;;;;9.35;7.40;;;;;;;3.10;100.00;100559.50;10255865;29;20369;-72
2021/01/03 13:08:55;;;;;;;11.77;8.02;;;;;;;3.12;100.00;100555.13;10257209;29;20118;-72
2021/01/03 13:13:57;;;;;;;13.45;10.57;;;;;;;3.04;100.00;100558.69;10257262;29;20043;-72
2021/01/03 13:18:58;;;;;;;10.63;7.60;;;;;;;3.01;100.00;100539.69;10254833;28;20039;-72
2021/01/03 13:24:01;;;;;;;8.85;7.32;;;;;;;3.05;100.00;100556.94;10256307;29;20047;-72
2021/01/03 13:29:02;;;;;;;14.10;10.10;;;;;;;3.05;100.00;100557.81;10273249;28;20072;-72
2021/01/03 13:34:03;;;;;;;9.43;7.72;;;;;;;3.03;100.00;100550.91;10294153;28;20059;-72
2021/01/03 13:39:04;;;;;;;10.70;8.00;;;;;;;3.20;100.00;100567.13;10262491;28;20062;-72
2021/01/03 13:44:08;;;;;;;9.90;8.90;;;;;;;3.09;100.00;100555.19;10253398;29;20047;-72
2021/01/03 13:49:10;;;;;;;10.27;8.38;;;;;;;3.07;100.00;100549.13;10252330;29;20047;-72
2021/01/03 13:54:11;;;;;;;12.45;8.52;;;;;;;3.12;100.00;100573.34;10251039;29;20066;-72
2021/01/03 13:59:13;;;;;;;34.20;26.90;;;;;;;3.09;100.00;100568.19;10251907;29;20042;-72
2021/01/03 14:04:14;;;;;;;49.50;35.53;;;;;;;3.14;100.00;100579.38;10249309;29;20495;-72
2021/01/03 14:09:15;;;;;;;39.80;32.40;;;;;;;3.09;100.00;100578.59;10234400;29;20058;-72
2021/01/03 14:14:16;;;;;;;30.08;19.38;;;;;;;3.09;100.00;100579.47;10254744;29;20047;-72
2021/01/03 14:19:21;;;;;;;29.02;20.23;;;;;;;3.15;100.00;100591.53;10252991;29;20043;-72
2021/01/03 14:24:22;;;;;;;87.60;59.92;;;;;;;3.18;100.00;100599.31;10242654;29;20483;-72
2021/01/03 14:29:26;;;;;;;68.78;51.13;;;;;;;3.13;100.00;100586.34;10249388;28;20066;-73
2021/01/03 14:34:39;;;;;;;15.35;11.25;;;;;;;3.13;100.00;100588.06;10250583;29;20063;-72
2021/01/03 14:39:40;;;;;;;13.00;9.50;;;;;;;3.19;100.00;100587.97;10248163;28;20381;-73
2021/01/03 14:44:41;;;;;;;12.18;8.88;;;;;;;3.13;100.00;100585.47;10249928;28;20098;-72
2021/01/03 14:50:07;;;;;;;12.98;10.18;;;;;;;3.09;100.00;100591.63;10260043;29;20403;-73
2021/01/03 14:55:29;;;;;;;15.70;13.50;;;;;;;3.04;100.00;100602.06;10257331;29;20047;-72
2021/01/03 15:00:44;;;;;;;12.70;10.40;;;;;;;2.99;100.00;100602.16;10256429;29;20047;-72
2021/01/03 15:06:05;;;;;;;13.68;11.00;;;;;;;2.93;100.00;100599.59;10251782;28;20409;-73
2021/01/03 15:11:07;;;;;;;14.70;10.50;;;;;;;2.85;100.00;100609.25;10250178;29;20080;-73
2021/01/03 15:16:25;;;;;;;18.90;13.48;;;;;;;2.84;100.00;100628.38;10257782;29;20043;-73
2021/01/03 15:21:28;;;;;;;15.10;11.52;;;;;;;2.75;100.00;100638.03;10241682;29;20059;-73
2021/01/03 15:26:35;;;;;;;14.70;12.43;;;;;;;2.66;100.00;100647.66;10224216;29;20461;-73
2021/01/03 15:31:48;;;;;;;15.43;10.68;;;;;;;2.80;100.00;100654.44;10242803;28;20075;-72
2021/01/03 15:36:50;;;;;;;17.27;10.00;;;;;;;2.71;100.00;100657.13;10258556;28;20054;-74
2021/01/03 15:42:05;;;;;;;24.70;17.98;;;;;;;2.76;100.00;100673.56;10237353;29;20452;-74
2021/01/03 15:47:20;;;;;;;15.43;11.48;;;;;;;2.71;100.00;100678.81;10242764;29;20054;-74
2021/01/03 15:52:30;;;;;;;19.20;14.90;;;;;;;2.63;100.00;100671.09;10257814;29;20047;-74
2021/01/03 15:57:35;;;;;;;12.90;10.25;;;;;;;2.69;100.00;100677.94;10248133;28;20302;-74
2021/01/03 16:02:38;;;;;;;16.85;12.70;;;;;;;2.68;100.00;100682.28;10259592;29;20327;-74
2021/01/03 16:07:39;;;;;;;16.60;10.90;;;;;;;2.72;100.00;100687.47;10253258;28;20042;-74
2021/01/03 16:12:41;;;;;;;13.77;10.57;;;;;;;2.61;100.00;100670.22;10237365;29;20062;-74
2021/01/03 16:17:47;;;;;;;13.32;9.60;;;;;;;2.65;100.00;100676.28;10255701;28;20411;-74
2021/01/03 16:23:06;;;;;;;11.63;8.57;;;;;;;2.58;100.00;100672.88;10255387;29;20047;-74
2021/01/03 16:28:32;;;;;;;13.48;9.48;;;;;;;2.53;100.00;100664.25;10265662;28;20047;-74
2021/01/03 16:34:07;;;;;;;15.00;9.93;;;;;;;2.68;100.00;100682.28;10297084;28;20054;-75
2021/01/03 16:39:35;;;;;;;12.70;9.10;;;;;;;2.61;100.00;100672.84;10272386;28;20043;-74
2021/01/03 16:45:01;;;;;;;13.93;9.65;;;;;;;2.60;100.00;100680.66;10256690;29;20050;-73
2021/01/03 16:50:22;;;;;;;11.57;7.78;;;;;;;2.62;100.00;100689.31;10241024;29;20416;-74
2021/01/03 16:55:44;;;;;;;14.90;11.02;;;;;;;2.56;100.00;100677.25;10245818;29;20070;-74
2021/01/03 17:00:57;;;;;;;12.30;8.82;;;;;;;2.65;100.00;100692.75;10222087;29;20620;-74
2021/01/03 17:06:00;;;;;;;13.75;9.23;;;;;;;2.59;100.00;100684.16;10239371;29;20055;-74
2021/01/03 17:11:07;;;;;;;14.40;9.23;;;;;;;2.64;100.00;100700.56;10254690;28;20587;-74
2021/01/03 17:16:14;;;;;;;11.75;8.38;;;;;;;2.66;100.00;100699.69;10256108;29;20051;-74
2021/01/03 17:21:32;;;;;;;12.10;8.07;;;;;;;2.55;100.00;100693.72;10256044;29;20047;-74
2021/01/03 17:26:40;;;;;;;22.67;14.82;;;;;;;2.58;100.00;100695.44;10255545;29;20069;-74
2021/01/03 17:32:00;;;;;;;10.75;8.02;;;;;;;2.59;100.00;100703.22;10248763;28;20043;-74
2021/01/03 17:37:34;;;;;;;10.75;7.90;;;;;;;2.50;100.00;100711.13;10251212;29;20523;-74
2021/01/03 17:42:35;;;;;;;11.77;8.35;;;;;;;2.37;100.00;100704.28;10250818;28;20043;-74
2021/01/03 17:47:42;;;;;;;13.88;9.98;;;;;;;2.33;100.00;100701.75;10253704;29;20047;-74
2021/01/03 17:52:45;;;;;;;12.30;9.30;;;;;;;2.27;100.00;100711.31;10254324;29;20047;-74
2021/01/03 17:57:50;;;;;;;13.18;9.68;;;;;;;2.05;100.00;100706.31;10253250;29;20051;-74
2021/01/03 18:02:57;;;;;;;13.43;10.73;;;;;;;2.05;100.00;100724.50;10232558;29;20047;-75
2021/01/03 18:07:58;;;;;;;13.75;10.52;;;;;;;1.92;100.00;100722.88;10229512;29;20054;-74
2021/01/03 18:12:59;;;;;;;21.38;16.95;;;;;;;1.87;100.00;100730.69;10251571;29;20404;-75
2021/01/03 18:18:02;;;;;;;15.77;12.20;;;;;;;1.67;100.00;100722.19;10249054;29;20058;-75
2021/01/03 18:23:03;;;;;;;17.50;11.98;;;;;;;1.62;100.00;100709.22;10232004;29;20461;-74
2021/01/03 18:28:05;;;;;;;15.95;11.68;;;;;;;1.63;100.00;100712.66;10248669;28;20042;-75
2021/01/03 18:33:06;;;;;;;14.88;11.30;;;;;;;1.59;100.00;100711.81;10249950;29;20051;-75
2021/01/03 18:38:12;;;;;;;16.67;12.23;;;;;;;1.62;100.00;100711.81;10248656;29;20503;-74
2021/01/03 18:43:14;;;;;;;14.48;10.85;;;;;;;1.69;100.00;100720.41;10248939;28;20048;-75
2021/01/03 18:48:15;;;;;;;15.02;11.85;;;;;;;1.67;100.00;100723.03;10251406;29;20484;-74
2021/01/03 18:53:16;;;;;;;15.50;12.35;;;;;;;1.73;100.00;100740.31;10249319;29;20047;-75
2021/01/03 18:58:17;;;;;;;15.73;11.40;;;;;;;1.65;100.00;100724.78;10251383;29;20043;-75
2021/01/03 19:03:18;;;;;;;14.50;12.05;;;;;;;1.74;100.00;100742.91;10251861;29;20036;-75
2021/01/03 19:08:21;;;;;;;14.80;12.35;;;;;;;1.64;100.00;100736.03;10238690;29;20044;-74
2021/01/03 19:13:22;;;;;;;16.35;12.40;;;;;;;1.73;100.00;100743.78;10235620;29;20483;-74
2021/01/03 19:18:23;;;;;;;17.73;13.38;;;;;;;1.67;100.00;100749.00;10236057;29;20515;-74
2021/01/03 19:23:24;;;;;;;15.50;12.63;;;;;;;1.74;100.00;100762.81;10252094;28;20047;-74
2021/01/03 19:28:25;;;;;;;13.32;10.75;;;;;;;1.59;100.00;100750.75;10247844;28;20043;-75
2021/01/03 19:33:27;;;;;;;13.90;11.43;;;;;;;1.75;100.00;100765.41;10283299;28;20123;-74
2021/01/03 19:38:28;;;;;;;13.95;11.85;;;;;;;1.85;100.00;100771.38;10257985;28;20051;-74
2021/01/03 19:43:29;;;;;;;12.90;10.40;;;;;;;1.85;100.00;100772.25;10256775;29;20403;-74
2021/01/03 19:48:32;;;;;;;12.43;9.38;;;;;;;1.84;100.00;100774.88;10259068;29;20040;-74
2021/01/03 19:53:33;;;;;;;12.93;10.00;;;;;;;1.93;100.00;100792.97;10240881;29;20055;-74
2021/01/03 19:58:34;;;;;;;13.25;11.82;;;;;;;1.92;100.00;100794.72;10257708;29;20134;-74
2021/01/03 20:03:35;;;;;;;14.85;11.30;;;;;;;1.92;100.00;100793.88;10256767;29;20127;-75
2021/01/03 20:08:39;;;;;;;12.50;10.20;;;;;;;1.98;100.00;100813.75;10257097;29;20051;-75
2021/01/03 20:13:41;;;;;;;12.80;11.10;;;;;;;1.94;100.00;100801.63;10258382;29;20058;-75
2021/01/03 20:18:42;;;;;;;11.35;9.02;;;;;;;1.89;100.00;100815.53;10257198;28;20051;-75
2021/01/03 20:23:43;;;;;;;11.73;9.18;;;;;;;1.99;100.00;100825.88;10258215;28;20502;-74
2021/01/03 20:28:45;;;;;;;11.45;9.20;;;;;;;1.83;100.00;100802.59;10272932;28;20436;-74
2021/01/03 20:33:46;;;;;;;9.85;8.80;;;;;;;1.90;100.00;100817.25;10255032;28;20062;-74
2021/01/03 20:38:48;;;;;;;10.88;9.77;;;;;;;1.86;100.00;100812.94;10237347;29;20261;-75
2021/01/03 20:43:50;;;;;;;11.70;8.90;;;;;;;1.88;100.00;100829.38;10205025;29;20054;-74
2021/01/03 20:48:51;;;;;;;11.52;9.90;;;;;;;1.79;100.00;100816.44;10231278;29;20051;-74
2021/01/03 20:53:53;;;;;;;10.95;9.38;;;;;;;1.84;100.00;100816.44;10256776;29;20356;-75
2021/01/03 20:58:54;;;;;;;11.02;8.43;;;;;;;1.79;100.00;100806.06;10257451;29;20039;-76
2021/01/03 21:03:55;;;;;;;10.80;9.35;;;;;;;1.92;100.00;100817.25;10240036;29;20050;-75
2021/01/03 21:08:56;;;;;;;10.23;8.90;;;;;;;1.92;100.00;100813.78;10253950;29;20492;-75
2021/01/03 21:13:57;;;;;;;8.90;7.95;;;;;;;1.82;100.00;100800.00;10255579;29;20058;-75
2021/01/03 21:18:58;;;;;;;8.88;7.45;;;;;;;1.94;100.00;100807.69;10255808;29;20054;-75
2021/01/03 21:24:00;;;;;;;13.23;9.68;;;;;;;1.89;100.00;100810.34;10255426;28;20051;-75
2021/01/03 21:29:33;;;;;;;8.75;7.85;;;;;;;1.89;100.00;100818.13;10255336;28;20047;-75
2021/01/03 21:34:57;;;;;;;12.30;11.10;;;;;;;1.92;100.00;100813.78;10246636;28;20051;-75
2021/01/03 21:40:07;;;;;;;10.20;9.00;;;;;;;1.84;100.00;100808.66;10239961;29;20039;-75
2021/01/03 21:45:32;;;;;;;9.00;7.43;;;;;;;1.65;100.00;100809.59;10254734;29;20062;-75
2021/01/03 21:50:46;;;;;;;13.02;9.85;;;;;;;1.64;100.00;100806.13;10238039;29;20054;-75
2021/01/03 21:56:08;;;;;;;10.82;8.43;;;;;;;1.49;100.00;100801.03;10254432;28;20051;-74
2021/01/03 22:01:46;;;;;;;11.98;9.45;;;;;;;1.50;100.00;100802.75;10234695;29;20047;-75
2021/01/03 22:07:08;;;;;;;9.82;8.38;;;;;;;1.46;100.00;100809.69;10247658;28;20043;-75
2021/01/03 22:12:45;;;;;;;9.82;8.35;;;;;;;1.52;100.00;100821.75;10223227;29;20039;-75
2021/01/03 22:18:10;;;;;;;9.38;8.15;;;;;;;1.44;100.00;100820.94;10208477;29;20079;-75
2021/01/03 22:23:39;;;;;;;10.63;9.37;;;;;;;1.38;100.00;100826.16;10214942;29;20052;-76
2021/01/03 22:28:46;;;;;;;13.25;10.40;;;;;;;1.37;100.00;100827.88;10241270;28;20035;-75
2021/01/03 22:33:48;;;;;;;11.75;10.55;;;;;;;1.33;100.00;100831.38;10256313;29;20067;-74
2021/01/03 22:39:06;;;;;;;11.77;9.70;;;;;;;1.36;100.00;100833.94;10253678;29;20479;-75
2021/01/03 22:44:24;;;;;;;11.30;8.73;;;;;;;1.30;100.00;100830.50;10248505;29;20050;-74
2021/01/03 22:49:43;;;;;;;8.95;7.90;;;;;;;1.30;100.00;100833.97;10251606;29;20054;-75
2021/01/03 22:55:01;;;;;;;8.43;7.30;;;;;;;1.33;100.00;100838.28;10247008;29;20387;-75
2021/01/03 23:00:29;;;;;;;10.50;8.48;;;;;;;1.26;100.00;100826.19;10253617;29;20074;-74
2021/01/03 23:06:00;;;;;;;9.90;8.18;;;;;;;1.25;100.00;100834.84;10242099;28;20054;-75